sensor_id;sensor_type;location;lat;lon;timestamp;pressure;altitude;pressure_sealevel;temperature;humidity
46682;BME280;34101;53.430;-2.224;2023-05-08T00:01:28;101376.50;;;15.63;68.61
46682;BME280;34101;53.430;-2.224;2023-05-08T00:03:55;101374.15;;;15.58;68.66
46682;BME280;34101;53.430;-2.224;2023-05-08T00:06:22;101376.35;;;15.55;68.78
46682;BME280;34101;53.430;-2.224;2023-05-08T00:08:50;101371.70;;;15.53;68.85
46682;BME280;34101;53.430;-2.224;2023-05-08T00:11:17;101374.60;;;15.49;68.88
46682;BME280;34101;53.430;-2.224;2023-05-08T00:13:44;101376.49;;;15.48;68.83
46682;BME280;34101;53.430;-2.224;2023-05-08T00:16:12;101384.51;;;15.45;68.88
46682;BME280;34101;53.430;-2.224;2023-05-08T00:18:39;101390.15;;;15.40;69.00
46682;BME280;34101;53.430;-2.224;2023-05-08T00:21:06;101390.20;;;15.39;68.93
46682;BME280;34101;53.430;-2.224;2023-05-08T00:23:34;101389.53;;;15.32;68.91
46682;BME280;34101;53.430;-2.224;2023-05-08T00:26:01;101387.96;;;15.29;68.98
46682;BME280;34101;53.430;-2.224;2023-05-08T00:28:28;101381.21;;;15.24;68.92
46682;BME280;34101;53.430;-2.224;2023-05-08T00:30:59;101378.06;;;15.20;69.06
46682;BME280;34101;53.430;-2.224;2023-05-08T00:33:26;101377.16;;;15.17;69.01
46682;BME280;34101;53.430;-2.224;2023-05-08T00:35:58;101376.46;;;15.10;69.11
46682;BME280;34101;53.430;-2.224;2023-05-08T00:38:31;101374.67;;;15.04;68.99
46682;BME280;34101;53.430;-2.224;2023-05-08T00:40:59;101375.45;;;15.01;68.91
46682;BME280;34101;53.430;-2.224;2023-05-08T00:43:26;101376.79;;;15.00;68.67
46682;BME280;34101;53.430;-2.224;2023-05-08T00:45:55;101374.19;;;15.00;68.47
46682;BME280;34101;53.430;-2.224;2023-05-08T00:48:22;101375.32;;;14.97;68.64
46682;BME280;34101;53.430;-2.224;2023-05-08T00:50:51;101372.74;;;14.96;68.54
46682;BME280;34101;53.430;-2.224;2023-05-08T00:53:21;101372.11;;;14.96;68.41
46682;BME280;34101;53.430;-2.224;2023-05-08T00:55:49;101369.28;;;14.96;68.18
46682;BME280;34101;53.430;-2.224;2023-05-08T00:58:18;101371.28;;;14.91;67.95
46682;BME280;34101;53.430;-2.224;2023-05-08T01:00:47;101372.01;;;14.92;67.84
46682;BME280;34101;53.430;-2.224;2023-05-08T01:03:16;101370.05;;;14.91;67.50
46682;BME280;34101;53.430;-2.224;2023-05-08T01:05:45;101367.15;;;14.86;67.69
46682;BME280;34101;53.430;-2.224;2023-05-08T01:08:12;101362.29;;;14.88;67.58
46682;BME280;34101;53.430;-2.224;2023-05-08T01:10:45;101360.00;;;14.93;67.55
46682;BME280;34101;53.430;-2.224;2023-05-08T01:13:19;101355.21;;;14.83;67.56
46682;BME280;34101;53.430;-2.224;2023-05-08T01:15:53;101350.04;;;14.91;67.40
46682;BME280;34101;53.430;-2.224;2023-05-08T01:18:29;101350.66;;;14.95;67.17
46682;BME280;34101;53.430;-2.224;2023-05-08T01:21:03;101342.38;;;14.91;66.99
46682;BME280;34101;53.430;-2.224;2023-05-08T01:23:59;101339.67;;;14.92;66.91
46682;BME280;34101;53.430;-2.224;2023-05-08T01:27:20;101334.59;;;14.92;66.76
46682;BME280;34101;53.430;-2.224;2023-05-08T01:32:11;101327.85;;;14.88;66.48
46682;BME280;34101;53.430;-2.224;2023-05-08T01:34:47;101327.92;;;14.89;66.46
46682;BME280;34101;53.430;-2.224;2023-05-08T01:37:23;101325.59;;;14.90;66.18
46682;BME280;34101;53.430;-2.224;2023-05-08T01:39:59;101325.15;;;14.88;66.10
46682;BME280;34101;53.430;-2.224;2023-05-08T01:42:42;101322.85;;;14.87;65.45
46682;BME280;34101;53.430;-2.224;2023-05-08T01:45:16;101325.48;;;14.81;65.43
46682;BME280;34101;53.430;-2.224;2023-05-08T01:47:50;101324.55;;;14.78;65.27
46682;BME280;34101;53.430;-2.224;2023-05-08T01:50:29;101327.38;;;14.82;64.96
46682;BME280;34101;53.430;-2.224;2023-05-08T01:53:06;101321.66;;;14.86;64.69
46682;BME280;34101;53.430;-2.224;2023-05-08T01:55:36;101321.17;;;14.87;64.52
46682;BME280;34101;53.430;-2.224;2023-05-08T01:58:08;101317.99;;;14.90;64.37
46682;BME280;34101;53.430;-2.224;2023-05-08T02:00:38;101322.45;;;14.87;64.32
46682;BME280;34101;53.430;-2.224;2023-05-08T02:03:08;101325.19;;;14.87;64.18
46682;BME280;34101;53.430;-2.224;2023-05-08T02:05:37;101321.15;;;14.91;64.01
46682;BME280;34101;53.430;-2.224;2023-05-08T02:08:07;101317.32;;;14.94;64.08
46682;BME280;34101;53.430;-2.224;2023-05-08T02:10:41;101316.45;;;14.82;64.30
46682;BME280;34101;53.430;-2.224;2023-05-08T02:13:09;101319.98;;;14.87;63.85
46682;BME280;34101;53.430;-2.224;2023-05-08T02:15:38;101318.88;;;14.85;63.83
46682;BME280;34101;53.430;-2.224;2023-05-08T02:18:07;101317.02;;;14.83;63.81
46682;BME280;34101;53.430;-2.224;2023-05-08T02:20:35;101319.28;;;14.86;63.69
46682;BME280;34101;53.430;-2.224;2023-05-08T02:23:03;101317.41;;;14.88;63.19
46682;BME280;34101;53.430;-2.224;2023-05-08T02:25:31;101314.89;;;14.88;63.58
46682;BME280;34101;53.430;-2.224;2023-05-08T02:27:59;101314.24;;;14.92;63.31
46682;BME280;34101;53.430;-2.224;2023-05-08T02:30:28;101312.97;;;14.91;63.16
46682;BME280;34101;53.430;-2.224;2023-05-08T02:32:56;101311.00;;;14.95;63.06
46682;BME280;34101;53.430;-2.224;2023-05-08T02:35:26;101310.34;;;14.98;62.97
46682;BME280;34101;53.430;-2.224;2023-05-08T02:37:59;101309.43;;;15.03;62.48
46682;BME280;34101;53.430;-2.224;2023-05-08T02:40:28;101309.55;;;15.06;62.26
46682;BME280;34101;53.430;-2.224;2023-05-08T02:42:57;101306.19;;;15.09;62.27
46682;BME280;34101;53.430;-2.224;2023-05-08T02:45:26;101299.32;;;15.10;61.98
46682;BME280;34101;53.430;-2.224;2023-05-08T02:48:00;101297.19;;;15.12;61.77
46682;BME280;34101;53.430;-2.224;2023-05-08T02:50:38;101289.60;;;15.12;61.76
46682;BME280;34101;53.430;-2.224;2023-05-08T02:53:17;101289.31;;;15.15;61.75
46682;BME280;34101;53.430;-2.224;2023-05-08T02:55:49;101285.17;;;15.13;61.63
46682;BME280;34101;53.430;-2.224;2023-05-08T02:58:23;101281.72;;;15.13;61.48
46682;BME280;34101;53.430;-2.224;2023-05-08T03:00:57;101280.12;;;15.12;61.55
46682;BME280;34101;53.430;-2.224;2023-05-08T03:03:27;101278.09;;;15.13;61.48
46682;BME280;34101;53.430;-2.224;2023-05-08T03:05:59;101277.40;;;15.16;61.36
46682;BME280;34101;53.430;-2.224;2023-05-08T03:08:30;101276.13;;;15.11;61.32
46682;BME280;34101;53.430;-2.224;2023-05-08T03:11:01;101276.77;;;15.12;61.23
46682;BME280;34101;53.430;-2.224;2023-05-08T03:13:32;101275.39;;;15.09;61.27
46682;BME280;34101;53.430;-2.224;2023-05-08T03:16:02;101270.35;;;15.13;61.15
46682;BME280;34101;53.430;-2.224;2023-05-08T03:18:34;101268.83;;;15.14;61.09
46682;BME280;34101;53.430;-2.224;2023-05-08T03:21:03;101270.30;;;15.11;61.15
46682;BME280;34101;53.430;-2.224;2023-05-08T03:23:34;101270.89;;;15.10;61.08
46682;BME280;34101;53.430;-2.224;2023-05-08T03:26:04;101271.99;;;15.12;61.11
46682;BME280;34101;53.430;-2.224;2023-05-08T03:28:34;101272.62;;;15.10;61.22
46682;BME280;34101;53.430;-2.224;2023-05-08T03:31:04;101265.81;;;15.02;61.44
46682;BME280;34101;53.430;-2.224;2023-05-08T03:33:33;101259.68;;;15.00;61.37
46682;BME280;34101;53.430;-2.224;2023-05-08T03:36:03;101260.49;;;14.99;61.33
46682;BME280;34101;53.430;-2.224;2023-05-08T03:38:31;101259.23;;;14.97;61.49
46682;BME280;34101;53.430;-2.224;2023-05-08T03:40:58;101258.23;;;14.97;61.54
46682;BME280;34101;53.430;-2.224;2023-05-08T03:43:27;101262.15;;;14.95;61.48
46682;BME280;34101;53.430;-2.224;2023-05-08T03:45:55;101260.48;;;14.93;61.53
46682;BME280;34101;53.430;-2.224;2023-05-08T03:48:24;101252.73;;;14.90;61.64
46682;BME280;34101;53.430;-2.224;2023-05-08T03:50:52;101252.50;;;14.90;61.59
46682;BME280;34101;53.430;-2.224;2023-05-08T03:53:21;101253.36;;;14.93;61.66
46682;BME280;34101;53.430;-2.224;2023-05-08T03:55:49;101251.84;;;14.90;61.69
46682;BME280;34101;53.430;-2.224;2023-05-08T03:58:22;101249.29;;;14.91;61.82
46682;BME280;34101;53.430;-2.224;2023-05-08T04:01:00;101247.96;;;14.90;61.86
46682;BME280;34101;53.430;-2.224;2023-05-08T04:03:42;101244.10;;;14.89;61.98
46682;BME280;34101;53.430;-2.224;2023-05-08T04:06:23;101242.97;;;14.90;61.84
46682;BME280;34101;53.430;-2.224;2023-05-08T04:08:58;101246.16;;;14.93;61.84
46682;BME280;34101;53.430;-2.224;2023-05-08T04:11:32;101242.85;;;14.93;62.01
46682;BME280;34101;53.430;-2.224;2023-05-08T04:14:03;101238.10;;;14.96;61.87
46682;BME280;34101;53.430;-2.224;2023-05-08T04:16:35;101234.19;;;14.95;61.90
46682;BME280;34101;53.430;-2.224;2023-05-08T04:19:09;101237.24;;;14.96;61.73
46682;BME280;34101;53.430;-2.224;2023-05-08T04:21:41;101233.66;;;14.96;61.72
46682;BME280;34101;53.430;-2.224;2023-05-08T04:24:11;101236.56;;;14.98;61.64
46682;BME280;34101;53.430;-2.224;2023-05-08T04:26:40;101233.32;;;14.96;61.66
46682;BME280;34101;53.430;-2.224;2023-05-08T04:29:08;101232.84;;;15.00;61.69
46682;BME280;34101;53.430;-2.224;2023-05-08T04:31:39;101231.10;;;15.01;61.69
46682;BME280;34101;53.430;-2.224;2023-05-08T04:34:07;101231.52;;;15.01;61.58
46682;BME280;34101;53.430;-2.224;2023-05-08T04:36:34;101229.18;;;15.01;61.54
46682;BME280;34101;53.430;-2.224;2023-05-08T04:39:02;101223.22;;;14.99;61.73
46682;BME280;34101;53.430;-2.224;2023-05-08T04:41:29;101226.65;;;15.05;61.40
46682;BME280;34101;53.430;-2.224;2023-05-08T04:43:56;101225.48;;;15.07;61.68
46682;BME280;34101;53.430;-2.224;2023-05-08T04:46:24;101225.48;;;15.09;61.37
46682;BME280;34101;53.430;-2.224;2023-05-08T04:48:51;101223.93;;;15.07;61.44
46682;BME280;34101;53.430;-2.224;2023-05-08T04:51:24;101223.18;;;15.08;61.42
46682;BME280;34101;53.430;-2.224;2023-05-08T04:53:51;101219.03;;;15.06;61.36
46682;BME280;34101;53.430;-2.224;2023-05-08T04:56:19;101217.03;;;15.07;61.47
46682;BME280;34101;53.430;-2.224;2023-05-08T04:58:46;101214.59;;;15.08;61.57
46682;BME280;34101;53.430;-2.224;2023-05-08T05:01:13;101213.49;;;15.07;61.62
46682;BME280;34101;53.430;-2.224;2023-05-08T05:03:41;101218.55;;;15.05;61.71
46682;BME280;34101;53.430;-2.224;2023-05-08T05:06:08;101220.10;;;15.01;62.00
46682;BME280;34101;53.430;-2.224;2023-05-08T05:08:36;101221.61;;;15.03;62.02
46682;BME280;34101;53.430;-2.224;2023-05-08T05:11:03;101224.71;;;14.92;62.74
46682;BME280;34101;53.430;-2.224;2023-05-08T05:13:30;101225.59;;;14.88;63.33
46682;BME280;34101;53.430;-2.224;2023-05-08T05:15:58;101227.77;;;14.82;63.80
46682;BME280;34101;53.430;-2.224;2023-05-08T05:18:25;101229.94;;;14.78;64.11
46682;BME280;34101;53.430;-2.224;2023-05-08T05:20:53;101230.32;;;14.73;64.93
46682;BME280;34101;53.430;-2.224;2023-05-08T05:23:23;101229.97;;;14.65;66.04
46682;BME280;34101;53.430;-2.224;2023-05-08T05:25:51;101240.15;;;14.25;67.17
46682;BME280;34101;53.430;-2.224;2023-05-08T05:28:18;101232.01;;;14.05;69.17
46682;BME280;34101;53.430;-2.224;2023-05-08T05:30:46;101226.73;;;13.96;70.59
46682;BME280;34101;53.430;-2.224;2023-05-08T05:33:13;101229.22;;;13.88;71.13
46682;BME280;34101;53.430;-2.224;2023-05-08T05:35:41;101240.13;;;13.65;71.90
46682;BME280;34101;53.430;-2.224;2023-05-08T05:38:08;101234.87;;;13.63;72.56
46682;BME280;34101;53.430;-2.224;2023-05-08T05:40:36;101234.72;;;13.58;72.54
46682;BME280;34101;53.430;-2.224;2023-05-08T05:43:03;101238.39;;;13.37;74.85
46682;BME280;34101;53.430;-2.224;2023-05-08T05:45:30;101234.71;;;13.35;74.51
46682;BME280;34101;53.430;-2.224;2023-05-08T05:47:58;101238.53;;;13.44;74.51
46682;BME280;34101;53.430;-2.224;2023-05-08T05:50:25;101234.19;;;13.39;74.70
46682;BME280;34101;53.430;-2.224;2023-05-08T05:52:53;101236.56;;;13.35;74.93
46682;BME280;34101;53.430;-2.224;2023-05-08T05:55:20;101234.88;;;13.32;75.61
46682;BME280;34101;53.430;-2.224;2023-05-08T05:57:48;101234.61;;;13.35;75.84
46682;BME280;34101;53.430;-2.224;2023-05-08T06:00:16;101234.97;;;13.29;76.09
46682;BME280;34101;53.430;-2.224;2023-05-08T06:02:43;101236.04;;;13.21;76.20
46682;BME280;34101;53.430;-2.224;2023-05-08T06:05:11;101230.95;;;13.18;76.19
46682;BME280;34101;53.430;-2.224;2023-05-08T06:07:38;101234.83;;;13.20;76.52
46682;BME280;34101;53.430;-2.224;2023-05-08T06:10:07;101228.17;;;13.19;76.49
46682;BME280;34101;53.430;-2.224;2023-05-08T06:12:34;101230.10;;;13.22;76.25
46682;BME280;34101;53.430;-2.224;2023-05-08T06:15:02;101229.30;;;13.16;76.63
46682;BME280;34101;53.430;-2.224;2023-05-08T06:17:29;101226.89;;;13.18;76.77
46682;BME280;34101;53.430;-2.224;2023-05-08T06:20:02;101226.58;;;13.17;76.75
46682;BME280;34101;53.430;-2.224;2023-05-08T06:22:29;101221.83;;;13.16;77.10
46682;BME280;34101;53.430;-2.224;2023-05-08T06:24:57;101223.81;;;13.15;77.40
46682;BME280;34101;53.430;-2.224;2023-05-08T06:27:24;101223.85;;;13.16;77.53
46682;BME280;34101;53.430;-2.224;2023-05-08T06:29:51;101222.85;;;13.08;77.33
46682;BME280;34101;53.430;-2.224;2023-05-08T06:32:19;101222.18;;;13.10;77.29
46682;BME280;34101;53.430;-2.224;2023-05-08T06:34:46;101217.71;;;13.10;77.53
46682;BME280;34101;53.430;-2.224;2023-05-08T06:37:13;101214.01;;;13.16;77.72
46682;BME280;34101;53.430;-2.224;2023-05-08T06:39:41;101215.38;;;13.16;78.02
46682;BME280;34101;53.430;-2.224;2023-05-08T06:42:08;101212.23;;;13.11;78.12
46682;BME280;34101;53.430;-2.224;2023-05-08T06:44:36;101215.04;;;13.13;78.26
46682;BME280;34101;53.430;-2.224;2023-05-08T06:47:03;101211.80;;;13.19;78.30
46682;BME280;34101;53.430;-2.224;2023-05-08T06:49:31;101217.18;;;13.23;78.06
46682;BME280;34101;53.430;-2.224;2023-05-08T06:51:58;101212.63;;;13.20;78.43
46682;BME280;34101;53.430;-2.224;2023-05-08T06:54:26;101212.38;;;13.27;78.56
46682;BME280;34101;53.430;-2.224;2023-05-08T06:56:53;101210.87;;;13.25;78.56
46682;BME280;34101;53.430;-2.224;2023-05-08T06:59:20;101210.09;;;13.17;79.21
46682;BME280;34101;53.430;-2.224;2023-05-08T07:01:48;101207.30;;;13.26;79.12
46682;BME280;34101;53.430;-2.224;2023-05-08T07:04:15;101206.92;;;13.30;79.20
46682;BME280;34101;53.430;-2.224;2023-05-08T07:06:43;101205.88;;;13.37;79.28
46682;BME280;34101;53.430;-2.224;2023-05-08T07:09:10;101202.14;;;13.37;78.86
46682;BME280;34101;53.430;-2.224;2023-05-08T07:11:38;101204.78;;;13.34;78.93
46682;BME280;34101;53.430;-2.224;2023-05-08T07:14:05;101198.29;;;13.38;79.13
46682;BME280;34101;53.430;-2.224;2023-05-08T07:16:33;101201.82;;;13.39;79.08
46682;BME280;34101;53.430;-2.224;2023-05-08T07:19:00;101198.39;;;13.43;79.18
46682;BME280;34101;53.430;-2.224;2023-05-08T07:21:27;101195.38;;;13.45;78.98
46682;BME280;34101;53.430;-2.224;2023-05-08T07:23:55;101197.33;;;13.43;79.41
46682;BME280;34101;53.430;-2.224;2023-05-08T07:26:22;101197.31;;;13.32;79.43
46682;BME280;34101;53.430;-2.224;2023-05-08T07:28:50;101197.09;;;13.40;79.48
46682;BME280;34101;53.430;-2.224;2023-05-08T07:31:17;101197.94;;;13.49;79.42
46682;BME280;34101;53.430;-2.224;2023-05-08T07:33:45;101199.47;;;13.45;79.41
46682;BME280;34101;53.430;-2.224;2023-05-08T07:36:12;101194.51;;;13.44;79.48
46682;BME280;34101;53.430;-2.224;2023-05-08T07:38:44;101192.39;;;13.48;79.37
46682;BME280;34101;53.430;-2.224;2023-05-08T07:41:12;101193.61;;;13.50;79.56
46682;BME280;34101;53.430;-2.224;2023-05-08T07:43:39;101195.86;;;13.57;79.49
46682;BME280;34101;53.430;-2.224;2023-05-08T07:46:07;101196.75;;;13.48;78.62
46682;BME280;34101;53.430;-2.224;2023-05-08T07:48:34;101194.72;;;13.50;79.16
46682;BME280;34101;53.430;-2.224;2023-05-08T07:51:02;101195.70;;;13.61;79.32
46682;BME280;34101;53.430;-2.224;2023-05-08T07:53:29;101195.71;;;13.41;79.29
46682;BME280;34101;53.430;-2.224;2023-05-08T07:55:56;101188.04;;;13.00;81.12
46682;BME280;34101;53.430;-2.224;2023-05-08T07:58:24;101190.52;;;13.20;80.72
46682;BME280;34101;53.430;-2.224;2023-05-08T08:00:52;101193.94;;;13.38;80.32
46682;BME280;34101;53.430;-2.224;2023-05-08T08:03:25;101190.52;;;13.29;80.15
46682;BME280;34101;53.430;-2.224;2023-05-08T08:05:51;101192.20;;;13.37;80.16
46682;BME280;34101;53.430;-2.224;2023-05-08T08:08:19;101192.50;;;13.26;80.49
46682;BME280;34101;53.430;-2.224;2023-05-08T08:10:46;101188.66;;;13.28;80.69
46682;BME280;34101;53.430;-2.224;2023-05-08T08:13:14;101188.69;;;13.28;81.07
46682;BME280;34101;53.430;-2.224;2023-05-08T08:15:41;101186.40;;;13.31;81.03
46682;BME280;34101;53.430;-2.224;2023-05-08T08:18:09;101183.89;;;13.32;81.52
46682;BME280;34101;53.430;-2.224;2023-05-08T08:20:37;101187.97;;;13.40;81.56
46682;BME280;34101;53.430;-2.224;2023-05-08T08:23:03;101189.34;;;13.39;81.31
46682;BME280;34101;53.430;-2.224;2023-05-08T08:25:31;101184.81;;;13.37;81.53
46682;BME280;34101;53.430;-2.224;2023-05-08T08:27:59;101189.29;;;13.39;81.66
46682;BME280;34101;53.430;-2.224;2023-05-08T08:30:26;101181.50;;;13.27;81.38
46682;BME280;34101;53.430;-2.224;2023-05-08T08:32:53;101181.44;;;13.48;81.24
46682;BME280;34101;53.430;-2.224;2023-05-08T08:35:21;101181.83;;;13.58;81.30
46682;BME280;34101;53.430;-2.224;2023-05-08T08:37:48;101180.88;;;13.63;81.06
46682;BME280;34101;53.430;-2.224;2023-05-08T08:40:15;101174.33;;;13.71;81.06
46682;BME280;34101;53.430;-2.224;2023-05-08T08:42:43;101174.23;;;13.79;80.93
46682;BME280;34101;53.430;-2.224;2023-05-08T08:45:10;101167.13;;;13.74;80.76
46682;BME280;34101;53.430;-2.224;2023-05-08T08:47:39;101167.16;;;13.75;80.75
46682;BME280;34101;53.430;-2.224;2023-05-08T08:50:13;101166.94;;;13.74;81.05
46682;BME280;34101;53.430;-2.224;2023-05-08T08:52:46;101171.51;;;13.77;81.03
46682;BME280;34101;53.430;-2.224;2023-05-08T08:55:15;101175.34;;;13.62;81.35
46682;BME280;34101;53.430;-2.224;2023-05-08T08:57:53;101163.54;;;13.53;81.00
46682;BME280;34101;53.430;-2.224;2023-05-08T09:00:28;101166.63;;;13.58;81.41
46682;BME280;34101;53.430;-2.224;2023-05-08T09:02:56;101165.59;;;13.73;80.90
46682;BME280;34101;53.430;-2.224;2023-05-08T09:05:24;101163.85;;;13.81;81.12
46682;BME280;34101;53.430;-2.224;2023-05-08T09:07:53;101157.36;;;13.81;80.72
46682;BME280;34101;53.430;-2.224;2023-05-08T09:10:22;101154.69;;;13.84;80.41
46682;BME280;34101;53.430;-2.224;2023-05-08T09:12:50;101153.54;;;13.84;80.34
46682;BME280;34101;53.430;-2.224;2023-05-08T09:15:17;101146.90;;;13.85;80.62
46682;BME280;34101;53.430;-2.224;2023-05-08T09:17:45;101150.25;;;13.81;80.51
46682;BME280;34101;53.430;-2.224;2023-05-08T09:20:13;101144.02;;;13.81;80.63
46682;BME280;34101;53.430;-2.224;2023-05-08T09:22:42;101141.44;;;13.89;80.66
46682;BME280;34101;53.430;-2.224;2023-05-08T09:25:09;101141.54;;;13.97;81.22
46682;BME280;34101;53.430;-2.224;2023-05-08T09:27:36;101135.53;;;13.85;80.90
46682;BME280;34101;53.430;-2.224;2023-05-08T09:30:05;101132.04;;;13.82;80.88
46682;BME280;34101;53.430;-2.224;2023-05-08T09:32:43;101133.10;;;13.83;80.84
46682;BME280;34101;53.430;-2.224;2023-05-08T09:35:11;101131.58;;;13.85;80.88
46682;BME280;34101;53.430;-2.224;2023-05-08T09:37:39;101126.67;;;13.78;81.22
46682;BME280;34101;53.430;-2.224;2023-05-08T09:40:15;101126.37;;;13.87;81.51
46682;BME280;34101;53.430;-2.224;2023-05-08T09:42:43;101117.38;;;13.85;81.39
46682;BME280;34101;53.430;-2.224;2023-05-08T09:45:11;101123.67;;;13.97;81.52
46682;BME280;34101;53.430;-2.224;2023-05-08T09:47:51;101121.23;;;13.77;81.70
46682;BME280;34101;53.430;-2.224;2023-05-08T09:50:18;101121.99;;;14.12;81.45
46682;BME280;34101;53.430;-2.224;2023-05-08T09:52:47;101112.98;;;14.18;81.04
46682;BME280;34101;53.430;-2.224;2023-05-08T09:55:15;101120.27;;;14.32;80.92
46682;BME280;34101;53.430;-2.224;2023-05-08T09:57:52;101118.68;;;14.43;80.74
46682;BME280;34101;53.430;-2.224;2023-05-08T10:00:20;101113.03;;;14.43;80.45
46682;BME280;34101;53.430;-2.224;2023-05-08T10:02:54;101115.34;;;14.34;80.33
46682;BME280;34101;53.430;-2.224;2023-05-08T10:05:24;101109.98;;;14.37;80.01
46682;BME280;34101;53.430;-2.224;2023-05-08T10:07:57;101104.72;;;14.34;80.43
46682;BME280;34101;53.430;-2.224;2023-05-08T10:10:25;101098.64;;;14.58;80.68
46682;BME280;34101;53.430;-2.224;2023-05-08T10:12:54;101096.91;;;14.69;80.51
46682;BME280;34101;53.430;-2.224;2023-05-08T10:15:29;101098.27;;;14.68;80.36
46682;BME280;34101;53.430;-2.224;2023-05-08T10:18:02;101096.09;;;14.63;79.97
46682;BME280;34101;53.430;-2.224;2023-05-08T10:20:30;101092.66;;;14.63;80.19
46682;BME280;34101;53.430;-2.224;2023-05-08T10:22:58;101093.62;;;14.66;80.00
46682;BME280;34101;53.430;-2.224;2023-05-08T10:25:25;101086.52;;;14.54;81.19
46682;BME280;34101;53.430;-2.224;2023-05-08T10:28:02;101089.94;;;14.63;80.59
46682;BME280;34101;53.430;-2.224;2023-05-08T10:30:34;101091.13;;;14.55;80.28
46682;BME280;34101;53.430;-2.224;2023-05-08T10:33:08;101094.33;;;14.75;80.86
46682;BME280;34101;53.430;-2.224;2023-05-08T10:35:36;101098.73;;;14.84;80.44
46682;BME280;34101;53.430;-2.224;2023-05-08T10:38:03;101099.51;;;14.64;80.80
46682;BME280;34101;53.430;-2.224;2023-05-08T10:40:31;101099.58;;;14.69;80.74
46682;BME280;34101;53.430;-2.224;2023-05-08T10:42:59;101105.49;;;14.74;80.36
46682;BME280;34101;53.430;-2.224;2023-05-08T10:45:28;101107.74;;;14.61;80.57
46682;BME280;34101;53.430;-2.224;2023-05-08T10:48:02;101105.56;;;14.69;80.32
46682;BME280;34101;53.430;-2.224;2023-05-08T10:50:41;101103.76;;;14.72;80.36
46682;BME280;34101;53.430;-2.224;2023-05-08T10:53:16;101101.86;;;14.67;80.03
46682;BME280;34101;53.430;-2.224;2023-05-08T10:55:51;101101.00;;;14.63;80.13
46682;BME280;34101;53.430;-2.224;2023-05-08T10:58:29;101102.99;;;14.29;81.81
46682;BME280;34101;53.430;-2.224;2023-05-08T11:01:14;101104.62;;;14.66;81.27
46682;BME280;34101;53.430;-2.224;2023-05-08T11:03:44;101098.24;;;14.74;80.60
46682;BME280;34101;53.430;-2.224;2023-05-08T11:06:52;101093.78;;;14.82;80.60
46682;BME280;34101;53.430;-2.224;2023-05-08T11:09:21;101095.87;;;14.79;80.90
46682;BME280;34101;53.430;-2.224;2023-05-08T11:11:58;101093.26;;;14.81;80.86
46682;BME280;34101;53.430;-2.224;2023-05-08T11:14:28;101098.15;;;14.84;80.45
46682;BME280;34101;53.430;-2.224;2023-05-08T11:17:04;101093.96;;;14.81;80.67
46682;BME280;34101;53.430;-2.224;2023-05-08T11:19:31;101096.92;;;14.91;81.00
46682;BME280;34101;53.430;-2.224;2023-05-08T11:22:31;101094.46;;;14.96;80.38
46682;BME280;34101;53.430;-2.224;2023-05-08T11:25:01;101087.78;;;15.03;80.45
46682;BME280;34101;53.430;-2.224;2023-05-08T11:27:37;101085.51;;;15.11;80.31
46682;BME280;34101;53.430;-2.224;2023-05-08T11:30:22;101083.42;;;15.13;80.46
46682;BME280;34101;53.430;-2.224;2023-05-08T11:33:11;101089.96;;;15.19;80.59
46682;BME280;34101;53.430;-2.224;2023-05-08T11:35:41;101090.91;;;15.22;80.42
46682;BME280;34101;53.430;-2.224;2023-05-08T11:38:15;101092.49;;;15.43;80.21
46682;BME280;34101;53.430;-2.224;2023-05-08T11:40:45;101092.20;;;15.54;79.89
46682;BME280;34101;53.430;-2.224;2023-05-08T11:43:28;101094.27;;;15.37;79.46
46682;BME280;34101;53.430;-2.224;2023-05-08T11:46:00;101095.24;;;15.59;79.81
46682;BME280;34101;53.430;-2.224;2023-05-08T11:48:27;101093.62;;;15.68;79.17
46682;BME280;34101;53.430;-2.224;2023-05-08T11:50:55;101094.47;;;15.75;79.23
46682;BME280;34101;53.430;-2.224;2023-05-08T11:53:22;101087.29;;;15.77;78.55
46682;BME280;34101;53.430;-2.224;2023-05-08T11:55:52;101082.19;;;15.66;77.68
46682;BME280;34101;53.430;-2.224;2023-05-08T11:58:20;101077.34;;;15.91;77.62
46682;BME280;34101;53.430;-2.224;2023-05-08T12:00:48;101076.43;;;16.07;77.36
46682;BME280;34101;53.430;-2.224;2023-05-08T12:03:17;101075.40;;;16.05;76.66
46682;BME280;34101;53.430;-2.224;2023-05-08T12:05:44;101072.02;;;16.02;76.49
46682;BME280;34101;53.430;-2.224;2023-05-08T12:08:12;101073.77;;;16.10;76.91
46682;BME280;34101;53.430;-2.224;2023-05-08T12:10:40;101079.57;;;16.14;76.44
46682;BME280;34101;53.430;-2.224;2023-05-08T12:13:17;101082.05;;;16.11;76.34
46682;BME280;34101;53.430;-2.224;2023-05-08T12:15:45;101082.32;;;16.09;76.44
46682;BME280;34101;53.430;-2.224;2023-05-08T12:18:14;101081.48;;;16.26;76.33
46682;BME280;34101;53.430;-2.224;2023-05-08T12:20:50;101085.70;;;16.16;76.02
46682;BME280;34101;53.430;-2.224;2023-05-08T12:23:18;101085.93;;;16.20;76.35
46682;BME280;34101;53.430;-2.224;2023-05-08T12:25:45;101079.87;;;16.21;76.14
46682;BME280;34101;53.430;-2.224;2023-05-08T12:28:13;101068.76;;;16.29;76.14
46682;BME280;34101;53.430;-2.224;2023-05-08T12:30:41;101065.80;;;16.46;75.70
46682;BME280;34101;53.430;-2.224;2023-05-08T12:33:10;101056.04;;;16.25;75.23
46682;BME280;34101;53.430;-2.224;2023-05-08T12:35:38;101050.62;;;16.38;76.06
46682;BME280;34101;53.430;-2.224;2023-05-08T12:38:06;101040.71;;;16.52;75.52
46682;BME280;34101;53.430;-2.224;2023-05-08T12:40:39;101038.50;;;16.64;75.84
46682;BME280;34101;53.430;-2.224;2023-05-08T12:43:12;101033.95;;;16.80;75.14
46682;BME280;34101;53.430;-2.224;2023-05-08T12:45:41;101032.42;;;16.97;75.17
46682;BME280;34101;53.430;-2.224;2023-05-08T12:48:09;101039.16;;;17.10;74.83
46682;BME280;34101;53.430;-2.224;2023-05-08T12:50:37;101037.16;;;16.96;74.75
46682;BME280;34101;53.430;-2.224;2023-05-08T12:53:06;101038.34;;;16.75;74.39
46682;BME280;34101;53.430;-2.224;2023-05-08T12:55:35;101043.58;;;16.64;75.11
46682;BME280;34101;53.430;-2.224;2023-05-08T12:58:04;101053.75;;;16.63;75.30